Domino, Texas
Current Conditions -  °F | °C
As of 2:53 PM on Wednesday 26 Nov 2014 (Local Time) from KTXK Reporting Station
Clear Clear  
Wind Chill: 62°   Ceiling: Unl
Heat Index: 62°   Visibility: 10mi
Dew Point: 33°   Wind: 17mph
Humidity: 34%   Direction: 320°NW
Pressure: 30.11"   Gusts: NA
Location:  33.2185°N, 94.1365°W
Report Text: KTXK 262053Z 32015KT 10SM CLR 17/01 A3011 RMK AO2 SLP196 T01670006 53008
Loading
Personal Weather Stations






























Interactive Weather Map New forecast layout! Learn more

10-Day Weather Forecast

Advertisements
Track Severe Weather on mobile